createdAt,value
2017-04-05T00:00:36.693Z,7.5
2017-04-05T00:01:38.505Z,7.5
2017-04-05T00:02:40.303Z,7.5
2017-04-05T00:03:42.098Z,7.5
2017-04-05T00:04:44.239Z,7.4
2017-04-05T00:05:46.041Z,7.5
2017-04-05T00:06:47.831Z,7.5
2017-04-05T00:07:49.639Z,7.5
2017-04-05T00:08:51.430Z,7.4
2017-04-05T00:09:53.230Z,7.4
2017-04-05T00:10:55.019Z,7.4
2017-04-05T00:11:56.822Z,7.4
2017-04-05T00:12:58.618Z,7.3
2017-04-05T00:14:00.414Z,7.2
2017-04-05T00:15:02.545Z,7.2
2017-04-05T00:16:04.332Z,7.2
2017-04-05T00:17:06.132Z,7.2
2017-04-05T00:18:07.930Z,7.1
2017-04-05T00:19:09.712Z,7
2017-04-05T00:20:11.522Z,7
2017-04-05T00:21:13.317Z,7
2017-04-05T00:22:15.121Z,7
2017-04-05T00:23:16.911Z,7
2017-04-05T00:24:18.706Z,7
2017-04-05T00:25:20.500Z,7
2017-04-05T00:26:22.632Z,7
2017-04-05T00:27:24.445Z,7
2017-04-05T00:28:26.245Z,7
2017-04-05T00:29:28.041Z,7
2017-04-05T00:30:29.845Z,7
2017-04-05T00:31:31.644Z,7
2017-04-05T00:32:33.437Z,7
2017-04-05T00:33:35.573Z,6.9
2017-04-05T00:34:37.373Z,6.9
2017-04-05T00:35:39.166Z,6.9
2017-04-05T00:36:40.968Z,6.8
2017-04-05T00:37:42.756Z,6.8
2017-04-05T00:38:44.545Z,6.8
2017-04-05T00:39:46.338Z,6.7
2017-04-05T00:40:48.139Z,6.7
2017-04-05T00:41:49.926Z,6.6
2017-04-05T00:42:51.722Z,6.6
2017-04-05T00:43:53.525Z,6.6
2017-04-05T00:44:55.314Z,6.6
2017-04-05T00:45:57.113Z,6.6
2017-04-05T00:46:58.912Z,6.6
2017-04-05T00:48:00.712Z,6.6
2017-04-05T00:49:02.501Z,6.6
2017-04-05T00:50:04.304Z,6.6
2017-04-05T00:51:06.131Z,6.6
2017-04-05T00:52:08.267Z,6.5
2017-04-05T00:53:10.072Z,6.5
2017-04-05T00:54:11.864Z,6.5
2017-04-05T00:55:14.353Z,6.5
2017-04-05T00:56:16.150Z,6.4
2017-04-05T00:57:17.937Z,6.4
2017-04-05T00:58:19.736Z,6.4
2017-04-05T00:59:21.533Z,6.3
2017-04-05T01:00:23.335Z,6.3
2017-04-05T01:01:25.124Z,6.1
2017-04-05T01:02:27.267Z,6
2017-04-05T01:03:29.064Z,6
2017-04-05T01:04:30.852Z,6
2017-04-05T01:05:32.643Z,6
2017-04-05T01:06:34.442Z,6
2017-04-05T01:07:36.233Z,6.1
2017-04-05T01:08:38.041Z,6.1
2017-04-05T01:09:39.831Z,6
2017-04-05T01:10:41.627Z,6
2017-04-05T01:11:43.415Z,6
2017-04-05T01:12:45.223Z,6
2017-04-05T01:13:47.019Z,5.9
2017-04-05T01:14:49.155Z,5.9
2017-04-05T01:15:50.953Z,5.9
2017-04-05T01:16:52.744Z,5.9
2017-04-05T01:17:54.542Z,5.9
2017-04-05T01:18:56.339Z,5.8
2017-04-05T01:19:58.124Z,5.8
2017-04-05T01:20:59.916Z,5.8
2017-04-05T01:22:01.714Z,5.7
2017-04-05T01:23:03.517Z,5.7
2017-04-05T01:24:05.310Z,5.6
2017-04-05T01:25:07.107Z,5.6
2017-04-05T01:26:09.248Z,5.6
2017-04-05T01:27:11.048Z,5.6
2017-04-05T01:28:12.847Z,5.6
2017-04-05T01:29:14.987Z,5.6
2017-04-05T01:30:16.771Z,5.6
2017-04-05T01:31:18.565Z,5.5
2017-04-05T01:32:20.362Z,5.4
2017-04-05T01:33:22.166Z,5.4
2017-04-05T01:34:23.959Z,5.4
2017-04-05T01:35:25.749Z,5.4
2017-04-05T01:36:27.546Z,5.3
2017-04-05T01:37:29.341Z,5.3
2017-04-05T01:38:31.122Z,5.3
2017-04-05T01:39:32.915Z,5.3
2017-04-05T01:40:34.708Z,5.3
2017-04-05T01:41:36.529Z,5.2
2017-04-05T01:42:38.320Z,5.2
2017-04-05T01:43:40.114Z,5.2
2017-04-05T01:44:42.249Z,5.2
2017-04-05T01:45:44.047Z,5.1
2017-04-05T01:46:45.840Z,5.1
2017-04-05T01:47:47.633Z,5.1
2017-04-05T01:48:49.418Z,5.1
2017-04-05T01:49:51.225Z,5.1
2017-04-05T01:50:53.022Z,5.1
2017-04-05T01:51:54.817Z,5.1
2017-04-05T01:52:56.602Z,5.1
2017-04-05T01:53:58.399Z,5
2017-04-05T01:55:00.199Z,5
2017-04-05T01:56:02.002Z,5
2017-04-05T01:57:04.095Z,5
2017-04-05T01:58:05.884Z,5
2017-04-05T01:59:07.679Z,5
2017-04-05T02:00:09.473Z,5
2017-04-05T02:01:11.262Z,5
2017-04-05T02:02:13.048Z,5.1
2017-04-05T02:03:14.848Z,5.1
2017-04-05T02:04:16.642Z,5.1
2017-04-05T02:05:18.794Z,5.2
2017-04-05T02:06:20.578Z,5.2
2017-04-05T02:07:22.392Z,5.2
2017-04-05T02:08:24.189Z,5.1
2017-04-05T02:09:26.011Z,5.2
2017-04-05T02:10:27.808Z,5.2
2017-04-05T02:11:29.604Z,5.3
2017-04-05T02:12:31.401Z,5.4
2017-04-05T02:13:33.193Z,5.3
2017-04-05T02:14:34.994Z,5.4
2017-04-05T02:15:36.786Z,5.4
2017-04-05T02:16:38.578Z,5.5
2017-04-05T02:17:40.361Z,5.4
2017-04-05T02:18:42.161Z,5.5
2017-04-05T02:19:43.953Z,5.5
2017-04-05T02:20:45.737Z,5.5
2017-04-05T02:21:47.527Z,5.5
2017-04-05T02:22:49.323Z,5.5
2017-04-05T02:23:51.453Z,5.4
2017-04-05T02:24:53.248Z,5.4
2017-04-05T02:25:55.035Z,5.4
2017-04-05T02:26:56.836Z,5.4
2017-04-05T02:27:58.631Z,5.3
2017-04-05T02:29:00.424Z,5.3
2017-04-05T02:30:02.554Z,5.3
2017-04-05T02:31:04.360Z,5.3
2017-04-05T02:32:06.155Z,5.6
2017-04-05T02:33:07.948Z,5.5
2017-04-05T02:34:09.747Z,5.5
2017-04-05T02:35:11.877Z,5.5
2017-04-05T02:36:13.683Z,5.5
2017-04-05T02:37:15.475Z,5.5
2017-04-05T02:38:17.273Z,5.4
2017-04-05T02:39:19.057Z,5.6
2017-04-05T02:40:20.866Z,5.4
2017-04-05T02:41:22.658Z,5.4
2017-04-05T02:42:24.445Z,5.3
2017-04-05T02:43:26.235Z,5.2
2017-04-05T02:44:28.025Z,5.2
2017-04-05T02:45:29.816Z,5.3
2017-04-05T02:46:31.609Z,5.3
2017-04-05T02:47:33.398Z,5.3
2017-04-05T02:48:35.194Z,5.2
2017-04-05T02:49:36.993Z,5.2
2017-04-05T02:50:38.809Z,5.2
2017-04-05T02:51:40.599Z,5.2
2017-04-05T02:52:42.599Z,5.1
2017-04-05T02:53:44.736Z,5.1
2017-04-05T02:54:46.530Z,5.1
2017-04-05T11:48:11.610Z,23.3
2017-04-05T11:49:14.716Z,9.9
2017-04-05T11:50:17.934Z,9.9
2017-04-05T11:51:35.252Z,9.9
2017-04-05T11:52:38.173Z,9.9
2017-04-05T11:53:41.579Z,9.9
2017-04-05T11:54:46.015Z,9.9
2017-04-05T11:55:51.055Z,9.9
2017-04-05T11:56:53.631Z,10
2017-04-05T11:57:56.229Z,10.2
2017-04-05T11:58:58.677Z,10.3
2017-04-05T12:00:01.634Z,10.4
2017-04-05T12:01:04.739Z,10.3
2017-04-05T12:02:07.223Z,10.3
2017-04-05T12:03:10.092Z,10.4
2017-04-05T12:04:12.538Z,10.3
2017-04-05T12:05:14.747Z,10.3
2017-04-05T12:06:17.041Z,10.2
2017-04-05T12:07:19.614Z,10.3
2017-04-05T12:08:22.349Z,10.4
2017-04-05T12:09:25.730Z,10.4
2017-04-05T12:10:28.638Z,10.4
2017-04-05T12:11:31.582Z,10.2
2017-04-05T12:12:34.866Z,10.2
2017-04-05T12:13:38.496Z,10.3
2017-04-05T12:14:40.339Z,10.2
2017-04-05T12:15:43.622Z,10.2
2017-04-05T12:16:46.735Z,10.2
2017-04-05T12:17:50.163Z,10.1
2017-04-05T12:18:53.425Z,10.3
2017-04-05T12:19:56.984Z,10.3
2017-04-05T12:20:59.730Z,10.4
2017-04-05T12:22:02.160Z,10.4
2017-04-05T12:23:05.199Z,10.4
2017-04-05T12:24:07.773Z,10.4
2017-04-05T12:25:10.246Z,10.5
2017-04-05T12:26:12.343Z,10.3
2017-04-05T12:27:15.076Z,10.3
2017-04-05T12:28:17.999Z,10.3
2017-04-05T12:29:21.022Z,10.3
2017-04-05T12:30:24.064Z,10.4
2017-04-05T12:31:26.417Z,10.4
2017-04-05T12:32:28.259Z,10.5
2017-04-05T12:33:30.891Z,10.5
2017-04-05T12:34:34.066Z,10.6
2017-04-05T12:35:36.306Z,10.5
2017-04-05T12:36:39.907Z,10.4
2017-04-05T12:37:42.954Z,10.5
2017-04-05T12:38:45.292Z,10.6
2017-04-05T12:39:48.658Z,10.6
2017-04-05T12:40:50.896Z,10.5
2017-04-05T12:41:53.189Z,10.6
2017-04-05T12:45:00.424Z,11
2017-04-05T12:46:04.163Z,11.3
2017-04-05T12:47:06.836Z,11.4
2017-04-05T12:48:09.023Z,11.7
2017-04-05T12:49:11.732Z,12.5
2017-04-05T12:50:14.474Z,12.4
2017-04-05T12:51:17.223Z,12.3
2017-04-05T12:52:19.357Z,12.4
2017-04-05T12:53:21.878Z,12.7
2017-04-05T12:54:24.390Z,12.3
2017-04-05T12:55:28.218Z,12.2
2017-04-05T12:56:31.017Z,12.2
2017-04-05T12:57:33.640Z,12
2017-04-05T12:58:36.120Z,11.9
2017-04-05T12:59:38.159Z,12
2017-04-05T13:00:41.996Z,11.7
2017-04-05T13:01:44.710Z,11.9
2017-04-05T13:02:46.891Z,12.1
2017-04-05T13:03:50.099Z,11.7
2017-04-05T13:04:52.662Z,11.8
2017-04-05T13:05:54.978Z,12
2017-04-05T13:06:57.611Z,12
2017-04-05T13:08:00.045Z,11.8
2017-04-05T13:09:04.189Z,11.8
2017-04-05T13:10:07.228Z,11.6
2017-04-05T13:11:09.603Z,11.7
2017-04-05T13:12:14.497Z,11.6
2017-04-05T13:13:17.562Z,11.7
2017-04-05T13:14:21.416Z,11.4
2017-04-05T13:15:24.838Z,11.2
2017-04-05T13:16:28.010Z,11.4
2017-04-05T13:17:31.162Z,11.7
2017-04-05T13:18:34.184Z,11.8
2017-04-05T13:19:38.948Z,11.9
2017-04-05T13:20:42.133Z,11.6
2017-04-05T13:21:44.096Z,11.9
2017-04-05T13:22:47.018Z,12.1
2017-04-05T13:23:49.927Z,12.1
2017-04-05T13:24:52.286Z,12
2017-04-05T13:25:54.783Z,12
2017-04-05T13:26:56.686Z,11.9
2017-04-05T13:28:00.192Z,11.7
2017-04-05T13:29:05.596Z,11.6
2017-04-05T13:30:08.275Z,11.5
2017-04-05T13:31:11.826Z,11.5
2017-04-05T13:32:14.225Z,11.2
2017-04-05T13:33:17.053Z,11.5
2017-04-05T13:34:19.615Z,11.2
2017-04-05T13:35:21.445Z,11.3
2017-04-05T13:36:23.594Z,11.4
2017-04-05T13:37:26.102Z,11.3
2017-04-05T13:38:27.931Z,11.2
2017-04-05T13:39:30.371Z,11.3
2017-04-05T13:40:32.964Z,11.4
2017-04-05T13:41:35.217Z,11.3
2017-04-05T13:42:37.157Z,11.3
2017-04-05T13:43:39.048Z,11.3
2017-04-05T13:44:41.127Z,11.2
2017-04-05T13:45:43.304Z,11.1
2017-04-05T13:46:45.860Z,11.2
2017-04-05T13:47:48.326Z,11
2017-04-05T13:48:50.343Z,11
2017-04-05T13:49:52.903Z,10.9
2017-04-05T13:50:54.943Z,11
2017-04-05T13:51:57.277Z,10.9
2017-04-05T13:52:59.967Z,10.8
2017-04-05T13:54:02.119Z,10.8
2017-04-05T13:55:04.285Z,10.8
2017-04-05T13:56:06.439Z,10.8
2017-04-05T13:57:09.246Z,10.7
2017-04-05T13:58:11.668Z,10.7
2017-04-05T13:59:13.702Z,10.6
2017-04-05T14:00:16.426Z,10.5
2017-04-05T14:01:18.693Z,10.5
2017-04-05T14:02:20.847Z,10.4
2017-04-05T14:03:23.986Z,10.5
2017-04-05T14:04:27.373Z,10.4
2017-04-05T14:05:30.055Z,10.5
2017-04-05T14:06:32.289Z,10.6
2017-04-05T14:07:34.571Z,10.5
2017-04-05T14:08:37.076Z,10.5
2017-04-05T14:09:39.274Z,10.8
2017-04-05T14:10:41.244Z,10.9
2017-04-05T14:11:44.081Z,11
2017-04-05T14:12:47.017Z,11
2017-04-05T14:13:50.240Z,11
2017-04-05T14:14:52.308Z,11
2017-04-05T14:15:54.622Z,11
2017-04-05T14:16:56.896Z,10.9
2017-04-05T14:17:58.865Z,11
2017-04-05T14:19:01.337Z,11.1
2017-04-05T14:20:03.607Z,11.3
2017-04-05T14:21:06.231Z,11.4
2017-04-05T14:22:08.247Z,11.6
2017-04-05T14:23:10.558Z,11.7
2017-04-05T14:24:13.116Z,11.7
2017-04-05T14:25:15.059Z,11.6
2017-04-05T14:26:17.353Z,11.6
2017-04-05T14:27:19.545Z,12
2017-04-05T14:28:21.370Z,12
2017-04-05T14:29:23.202Z,12.1
2017-04-05T14:30:25.019Z,12.1
2017-04-05T14:31:26.829Z,11.8
2017-04-05T14:32:28.691Z,11.8
2017-04-05T14:33:32.263Z,11.9
2017-04-05T14:34:35.340Z,11.9
2017-04-05T14:35:38.557Z,11.5
2017-04-05T14:36:41.572Z,11.6
2017-04-05T14:37:44.438Z,11.5
2017-04-05T14:38:47.219Z,11.4
2017-04-05T14:39:50.040Z,11.3
2017-04-05T14:40:52.391Z,11.2
2017-04-05T14:41:55.011Z,11.3
2017-04-05T14:42:58.143Z,11.2
2017-04-05T14:44:01.282Z,11.4
2017-04-05T14:45:03.918Z,11.5
2017-04-05T14:46:07.807Z,11.4
2017-04-05T14:47:11.686Z,11.4
2017-04-05T14:48:14.506Z,11.3
2017-04-05T14:49:17.076Z,11.3
2017-04-05T14:50:20.036Z,11.3
2017-04-05T14:51:23.247Z,11.2
2017-04-05T14:52:26.030Z,11.2
2017-04-05T14:53:28.864Z,11.2
2017-04-05T14:54:31.698Z,11
2017-04-05T14:55:35.573Z,11
2017-04-05T14:56:39.987Z,11.1
2017-04-05T14:57:44.940Z,11.4
2017-04-05T14:58:48.614Z,11.2
2017-04-05T14:59:51.316Z,11.2
2017-04-05T15:00:54.396Z,11.1
2017-04-05T15:01:56.593Z,10.9
2017-04-05T15:02:59.020Z,10.9
2017-04-05T15:04:01.596Z,10.8
2017-04-05T15:05:04.151Z,10.7
2017-04-05T15:06:06.138Z,10.7
2017-04-05T15:07:09.856Z,11
2017-04-05T15:08:15.263Z,11
2017-04-05T15:09:17.955Z,11
2017-04-05T15:10:20.789Z,10.9
2017-04-05T15:11:23.341Z,10.7
2017-04-05T15:12:26.087Z,10.8
2017-04-05T15:13:28.350Z,10.8
2017-04-05T15:14:30.979Z,10.7
2017-04-05T15:15:33.434Z,10.7
2017-04-05T15:16:35.656Z,10.7
2017-04-05T15:17:37.798Z,10.7
2017-04-05T15:18:39.648Z,10.7
2017-04-05T15:19:41.804Z,10.8
2017-04-05T15:20:44.216Z,10.9
2017-04-05T15:21:46.460Z,10.8
2017-04-05T15:22:49.138Z,10.8
2017-04-05T15:23:51.528Z,10.7
2017-04-05T15:24:53.684Z,10.6
2017-04-05T15:25:55.610Z,10.6
2017-04-05T15:26:57.470Z,10.6
2017-04-05T15:27:59.421Z,10.7
2017-04-05T15:29:02.348Z,10.7
2017-04-05T15:30:04.601Z,10.7
2017-04-05T15:31:06.409Z,11
2017-04-05T15:32:08.211Z,11.3
2017-04-05T15:33:10.013Z,11.3
2017-04-05T15:34:11.816Z,11.5
2017-04-05T15:35:13.632Z,11.4
2017-04-05T15:36:15.436Z,11
2017-04-05T15:37:17.237Z,11.1
2017-04-05T15:38:19.043Z,11.3
2017-04-05T15:39:20.842Z,11.3
2017-04-05T15:40:22.664Z,11
2017-04-05T15:41:24.484Z,11.1
2017-04-05T15:42:26.285Z,11.1
2017-04-05T15:43:28.092Z,11.1
2017-04-05T15:44:29.902Z,11.2
2017-04-05T15:45:31.699Z,11.4
2017-04-05T15:46:33.835Z,11.6
2017-04-05T15:47:35.984Z,11.2
2017-04-05T15:48:38.467Z,11.1
2017-04-05T15:49:40.273Z,11.1
2017-04-05T15:50:42.079Z,11.3
2017-04-05T15:51:43.877Z,11.3
2017-04-05T15:52:46.019Z,11.4
2017-04-05T15:53:47.819Z,11.4
2017-04-05T15:54:49.616Z,11.4
2017-04-05T15:55:51.418Z,11.3
2017-04-05T15:56:53.240Z,11.3
2017-04-05T15:57:55.060Z,11.1
2017-04-05T15:58:56.873Z,11.3
2017-04-05T15:59:58.693Z,11
2017-04-05T16:01:00.847Z,11.1
2017-04-05T16:02:02.994Z,11.1
2017-04-05T16:03:05.141Z,11.3
2017-04-05T16:04:06.944Z,11.2
2017-04-05T16:05:08.752Z,10.9
2017-04-05T16:06:10.556Z,10.9
2017-04-05T16:07:12.353Z,10.9
2017-04-05T16:08:14.149Z,10.8
2017-04-05T16:09:15.946Z,10.8
2017-04-05T16:10:17.783Z,10.3
2017-04-05T16:11:19.590Z,10.5
2017-04-05T16:12:21.402Z,10.5
2017-04-05T16:13:23.209Z,10.5
2017-04-05T16:14:25.017Z,10.5
2017-04-05T16:15:26.817Z,10.4
2017-04-05T16:16:28.631Z,10.3
2017-04-05T16:17:30.438Z,10.3
2017-04-05T16:18:32.264Z,10.3
2017-04-05T16:19:34.397Z,10.3
2017-04-05T16:20:36.218Z,10.4
2017-04-05T16:21:38.021Z,10.4
2017-04-05T16:22:40.162Z,10.4
2017-04-05T16:23:41.963Z,10.4
2017-04-05T16:24:43.761Z,10.3
2017-04-05T16:25:45.569Z,10.2
2017-04-05T16:26:47.371Z,10.3
2017-04-05T16:27:49.169Z,10.4
2017-04-05T16:28:51.322Z,10.3
2017-04-05T16:29:53.132Z,10.2
2017-04-05T16:30:54.936Z,10.2
2017-04-05T16:31:56.742Z,10.1
2017-04-05T16:32:58.540Z,10.2
2017-04-05T16:34:00.347Z,10
2017-04-05T16:35:02.148Z,9.9
2017-04-05T16:36:03.947Z,9.9
2017-04-05T16:37:05.750Z,10.1
2017-04-05T16:38:07.559Z,10
2017-04-05T16:39:09.363Z,9.9
2017-04-05T16:40:11.501Z,9.9
2017-04-05T16:41:13.307Z,9.8
2017-04-05T16:42:15.108Z,9.8
2017-04-05T16:43:16.907Z,9.7
2017-04-05T16:44:19.045Z,9.7
2017-04-05T16:45:20.842Z,9.7
2017-04-05T16:46:22.657Z,9.7
2017-04-05T16:47:24.459Z,9.6
2017-04-05T16:48:26.255Z,9.6
2017-04-05T16:49:28.051Z,9.6
2017-04-05T16:50:29.846Z,9.6
2017-04-05T16:51:31.654Z,9.6
2017-04-05T16:52:33.451Z,9.6
2017-04-05T16:53:35.265Z,9.5
2017-04-05T16:54:37.063Z,9.4
2017-04-05T16:55:38.867Z,9.4
2017-04-05T16:56:40.667Z,9.4
2017-04-05T16:57:42.809Z,9.3
2017-04-05T16:58:45.037Z,9.3
2017-04-05T16:59:46.856Z,9.1
2017-04-05T17:00:48.659Z,9.1
2017-04-05T17:01:50.456Z,9.1
2017-04-05T17:02:52.266Z,9.1
2017-04-05T17:03:54.062Z,9
2017-04-05T17:04:55.894Z,8.8
2017-04-05T17:05:57.692Z,8.7
2017-04-05T17:06:59.492Z,8.7
2017-04-05T17:08:01.630Z,8.7
2017-04-05T17:09:03.427Z,8.7
2017-04-05T17:10:05.227Z,8.7
2017-04-05T17:11:07.040Z,8.7
2017-04-05T17:12:08.841Z,8.7
2017-04-05T17:13:10.641Z,8.6
2017-04-05T17:14:12.433Z,8.6
2017-04-05T17:15:14.246Z,8.6
2017-04-05T17:16:16.047Z,8.6
2017-04-05T17:17:17.852Z,8.4
2017-04-05T17:18:19.983Z,8.4
2017-04-05T17:19:21.780Z,8.4
2017-04-05T17:20:23.580Z,8.3
2017-04-05T17:21:25.729Z,8.2
2017-04-05T17:22:27.527Z,8.2
2017-04-05T17:23:29.668Z,8.2
2017-04-05T17:24:31.482Z,8.1
2017-04-05T17:25:33.291Z,8
2017-04-05T17:26:35.094Z,8
2017-04-05T17:27:36.894Z,7.9
2017-04-05T17:28:38.692Z,8
2017-04-05T17:29:40.490Z,7.9
2017-04-05T17:30:42.287Z,7.9
2017-04-05T17:31:44.073Z,7.9
2017-04-05T17:32:45.875Z,7.8
2017-04-05T17:33:47.674Z,7.7
2017-04-05T17:34:49.471Z,7.7
2017-04-05T17:35:51.603Z,7.6
2017-04-05T17:36:53.419Z,7.5
2017-04-05T17:37:55.220Z,7.6
2017-04-05T17:38:57.358Z,7.6
2017-04-05T17:39:59.164Z,7.5
2017-04-05T17:41:00.952Z,7.5
2017-04-05T17:42:03.085Z,7.5
2017-04-05T17:43:04.910Z,7.3
2017-04-05T17:44:06.708Z,7.3
2017-04-05T17:45:08.504Z,7.3
2017-04-05T17:46:10.301Z,7.2
2017-04-05T17:47:12.104Z,7.2
2017-04-05T17:48:13.896Z,7.2
2017-04-05T17:49:15.688Z,7.2
2017-04-05T17:50:17.488Z,7.1
2017-04-05T17:51:19.962Z,7.1
2017-04-05T17:52:21.764Z,7.1
2017-04-05T17:53:23.562Z,7.1
2017-04-05T17:54:25.361Z,7
2017-04-05T17:55:27.159Z,7
2017-04-05T17:56:28.956Z,7
2017-04-05T17:57:30.750Z,7
2017-04-05T17:58:32.561Z,6.9
2017-04-05T17:59:34.357Z,6.9
2017-04-05T18:00:36.160Z,6.9
2017-04-05T18:01:37.953Z,6.9
2017-04-05T18:02:39.756Z,6.8
2017-04-05T18:03:41.557Z,6.7
2017-04-05T18:04:43.360Z,6.6
2017-04-05T18:05:45.168Z,6.6
2017-04-05T18:06:46.967Z,6.7
2017-04-05T18:07:48.778Z,6.7
2017-04-05T18:08:50.591Z,6.6
2017-04-05T18:09:53.057Z,6.7
2017-04-05T18:10:55.189Z,6.7
2017-04-05T18:11:57.008Z,6.6
2017-04-05T18:12:59.135Z,6.5
2017-04-05T18:14:00.940Z,6.5
2017-04-05T18:15:02.730Z,6.5
2017-04-05T18:16:04.530Z,6.5
2017-04-05T18:17:06.321Z,6.4
2017-04-05T18:18:08.461Z,6.4
2017-04-05T18:19:10.251Z,6.4
2017-04-05T18:20:12.045Z,6.4
2017-04-05T18:21:14.179Z,6.4
2017-04-05T18:22:15.989Z,6.4
2017-04-05T18:23:17.790Z,6.3
2017-04-05T18:24:19.595Z,6.2
2017-04-05T18:25:21.383Z,6.3
2017-04-05T18:26:23.192Z,6.3
2017-04-05T18:27:24.981Z,6.4
2017-04-05T18:28:26.779Z,6.3
2017-04-05T18:29:28.585Z,6.3
2017-04-05T18:30:30.384Z,6.3
2017-04-05T18:31:32.173Z,6.3
2017-04-05T18:32:34.339Z,6.3
2017-04-05T18:33:36.146Z,6.4
2017-04-05T18:34:37.944Z,6.3
2017-04-05T18:35:40.075Z,6.3
2017-04-05T18:36:41.863Z,6.2
2017-04-05T18:37:44.003Z,6.2
2017-04-05T18:38:45.803Z,6.2
2017-04-05T18:39:47.594Z,6.2
2017-04-05T18:40:49.398Z,6.2
2017-04-05T18:41:51.196Z,6.2
2017-04-05T18:42:53.344Z,6.1
2017-04-05T18:43:55.138Z,6.1
2017-04-05T18:44:56.917Z,6.2
2017-04-05T18:45:58.713Z,6.2
2017-04-05T18:47:00.505Z,6.2
2017-04-05T18:48:02.303Z,6.1
2017-04-05T18:49:04.086Z,6.1
2017-04-05T18:50:06.224Z,6.2
2017-04-05T18:51:08.009Z,6.2
2017-04-05T18:52:09.799Z,6.2
2017-04-05T18:53:11.589Z,6.2
2017-04-05T18:54:13.375Z,6.2
2017-04-05T18:55:15.177Z,6.2
2017-04-05T18:56:16.974Z,6.3
2017-04-05T18:57:18.770Z,6.3
2017-04-05T18:58:20.553Z,6.3
2017-04-05T18:59:22.355Z,6.3
2017-04-05T19:00:24.493Z,6.4
2017-04-05T19:01:26.284Z,6.3
2017-04-05T19:02:28.089Z,6.3
2017-04-05T19:03:29.898Z,6.3
2017-04-05T19:04:31.692Z,6.3
2017-04-05T19:05:33.487Z,6.2
2017-04-05T19:06:35.274Z,6.2
2017-04-05T19:07:37.071Z,6.2
2017-04-05T19:08:38.868Z,6.3
2017-04-05T19:09:41.000Z,6.3
2017-04-05T19:10:42.792Z,6.3
2017-04-05T19:11:44.583Z,6.3
2017-04-05T19:12:46.376Z,6.3
2017-04-05T19:13:48.169Z,6.3
2017-04-05T19:14:49.972Z,6.4
2017-04-05T19:15:52.102Z,6.4
2017-04-05T19:16:53.900Z,6.4
2017-04-05T19:17:55.704Z,6.4
2017-04-05T19:18:57.492Z,6.4
2017-04-05T19:19:59.285Z,6.4
2017-04-05T19:21:01.086Z,6.5
2017-04-05T19:22:02.871Z,6.4
2017-04-05T19:23:04.672Z,6.4
2017-04-05T19:24:06.462Z,6.5
2017-04-05T19:25:08.592Z,6.5
2017-04-05T19:26:10.371Z,6.5
2017-04-05T19:27:12.165Z,6.4
2017-04-05T19:28:13.958Z,6.5
2017-04-05T19:29:15.747Z,6.5
2017-04-05T19:30:17.553Z,6.5
2017-04-05T19:31:19.356Z,6.5
2017-04-05T19:32:21.484Z,6.5
2017-04-05T19:33:23.276Z,6.5
2017-04-05T19:34:25.067Z,6.5
2017-04-05T19:35:27.200Z,6.4
2017-04-05T19:36:29.004Z,6.4
2017-04-05T19:37:30.794Z,6.5
2017-04-05T19:38:32.588Z,6.4
2017-04-05T19:39:34.384Z,6.4
2017-04-05T19:40:36.515Z,6.4
2017-04-05T19:41:38.310Z,6.4
2017-04-05T19:42:40.112Z,6.4
2017-04-05T19:43:41.924Z,6.4
2017-04-05T19:44:43.725Z,6.4
2017-04-05T19:45:45.522Z,6.4
2017-04-05T19:46:47.316Z,6.4
2017-04-05T19:47:49.108Z,6.4
2017-04-05T19:48:50.904Z,6.4
2017-04-05T19:49:52.698Z,6.4
2017-04-05T19:50:54.832Z,6.4
2017-04-05T19:51:56.964Z,6.4
2017-04-05T19:52:58.749Z,6.5
2017-04-05T19:54:00.534Z,6.4
2017-04-05T19:55:02.325Z,6.4
2017-04-05T19:56:04.126Z,6.4
2017-04-05T19:57:05.959Z,6.4
2017-04-05T19:58:07.759Z,6.4
2017-04-05T19:59:09.542Z,6.4
2017-04-05T20:00:11.338Z,6.4
2017-04-05T20:01:13.133Z,6.3
2017-04-05T20:02:14.923Z,6.3
2017-04-05T20:03:16.707Z,6.2
2017-04-05T20:04:18.502Z,6.2
2017-04-05T20:05:20.291Z,6.1
2017-04-05T20:06:22.084Z,6.1
2017-04-05T20:07:23.864Z,6
2017-04-05T20:08:25.996Z,6.1
2017-04-05T20:09:27.802Z,6.1
2017-04-05T20:10:29.601Z,6
2017-04-05T20:11:31.413Z,6
2017-04-05T20:12:33.545Z,6.1
2017-04-05T20:13:35.722Z,6
2017-04-05T20:14:37.524Z,6.1
2017-04-05T20:15:39.318Z,6
2017-04-05T20:16:41.105Z,6
2017-04-05T20:17:42.908Z,6
2017-04-05T20:18:44.698Z,6.1
2017-04-05T20:19:46.493Z,6.1
2017-04-05T20:20:48.274Z,6
2017-04-05T20:21:50.072Z,6
2017-04-05T20:22:51.885Z,6
2017-04-05T20:23:53.673Z,6.1
2017-04-05T20:24:55.467Z,6.1
2017-04-05T20:25:57.603Z,6.1
2017-04-05T20:26:59.398Z,6
2017-04-05T20:28:01.191Z,6.1
2017-04-05T20:29:02.974Z,6.1
2017-04-05T20:30:04.766Z,6.1
2017-04-05T20:31:06.555Z,6.1
2017-04-05T20:32:08.354Z,6.1
2017-04-05T20:33:10.146Z,6.1
2017-04-05T20:34:12.268Z,6.2
2017-04-05T20:35:14.062Z,6.2
2017-04-05T20:36:15.859Z,6.2
2017-04-05T20:37:17.649Z,6.2
2017-04-05T20:38:19.781Z,6.2
2017-04-05T20:39:21.573Z,6.2
2017-04-05T20:40:23.367Z,6.2
2017-04-05T20:41:25.168Z,6.2
2017-04-05T20:42:26.952Z,6.2
2017-04-05T20:43:28.745Z,6.2
2017-04-05T20:44:30.882Z,6.2
2017-04-05T20:45:32.686Z,6.1
2017-04-05T20:46:34.474Z,6.1
2017-04-05T20:47:36.266Z,6
2017-04-05T20:48:38.053Z,6
2017-04-05T20:49:39.848Z,6
2017-04-05T20:50:41.639Z,6
2017-04-05T20:51:43.429Z,5.9
2017-04-05T20:52:45.558Z,6
2017-04-05T20:53:47.358Z,6
2017-04-05T20:54:49.501Z,5.9
2017-04-05T20:55:51.633Z,5.9
2017-04-05T20:56:53.420Z,5.8
2017-04-05T20:57:55.215Z,5.8
2017-04-05T20:58:57.014Z,5.8
2017-04-05T20:59:58.813Z,5.7
2017-04-05T21:01:00.611Z,5.8
2017-04-05T21:02:02.400Z,5.8
2017-04-05T21:03:04.531Z,5.7
2017-04-05T21:04:06.663Z,5.6
2017-04-05T21:05:08.447Z,5.7
2017-04-05T21:06:10.236Z,5.6
2017-04-05T21:07:12.032Z,5.6
2017-04-05T21:08:13.827Z,5.7
2017-04-05T21:09:15.615Z,5.7
2017-04-05T21:10:17.400Z,5.7
2017-04-05T21:11:19.190Z,5.7
2017-04-05T21:12:21.316Z,5.7
2017-04-05T21:13:23.107Z,5.8
2017-04-05T21:14:24.898Z,5.8
2017-04-05T21:15:26.694Z,5.8
2017-04-05T21:16:28.491Z,5.8
2017-04-05T21:17:30.293Z,5.8
2017-04-05T21:18:32.078Z,5.8
2017-04-05T21:19:33.872Z,5.8
2017-04-05T21:20:35.659Z,5.8
2017-04-05T21:21:37.462Z,5.8
2017-04-05T21:22:39.252Z,5.8
2017-04-05T21:23:41.041Z,5.8
2017-04-05T21:24:42.860Z,5.8
2017-04-05T21:25:44.656Z,5.8
2017-04-05T21:26:46.452Z,5.8
2017-04-05T21:27:48.247Z,5.8
2017-04-05T21:28:50.040Z,5.8
2017-04-05T21:29:51.830Z,5.8
2017-04-05T21:30:53.620Z,5.8
2017-04-05T21:31:55.732Z,5.8
2017-04-05T21:32:59.314Z,5.7
2017-04-05T21:34:02.847Z,5.7
2017-04-05T21:35:05.223Z,5.8
2017-04-05T21:36:07.370Z,5.7
2017-04-05T21:37:09.214Z,5.8
2017-04-05T21:38:11.397Z,5.8
2017-04-05T21:39:13.601Z,5.8
2017-04-05T21:40:15.801Z,5.8
2017-04-05T21:41:17.636Z,5.8
2017-04-05T21:42:19.513Z,5.8
2017-04-05T21:43:22.468Z,5.8
2017-04-05T21:44:27.605Z,5.8
2017-04-05T21:45:30.190Z,5.8
2017-04-05T21:46:32.565Z,5.9
2017-04-05T21:47:35.843Z,5.9
2017-04-05T21:48:38.399Z,5.9
2017-04-05T21:49:41.062Z,5.9
2017-04-05T21:50:44.084Z,5.9
2017-04-05T21:51:46.523Z,5.8
2017-04-05T21:52:48.964Z,5.8
2017-04-05T21:53:51.545Z,5.9
2017-04-05T21:54:53.925Z,5.8
2017-04-05T21:55:56.235Z,5.9
2017-04-05T21:56:58.346Z,5.9
2017-04-05T21:58:00.821Z,5.9
2017-04-05T21:59:06.175Z,5.9
2017-04-05T22:00:08.951Z,5.9
2017-04-05T22:01:13.901Z,5.9
2017-04-05T22:02:16.476Z,5.9
2017-04-05T22:03:22.983Z,5.9
2017-04-05T22:04:25.695Z,5.9
2017-04-05T22:05:28.299Z,5.9
2017-04-05T22:06:31.047Z,5.9
2017-04-05T22:07:34.778Z,5.9
2017-04-05T22:08:37.470Z,5.9
2017-04-05T22:09:39.900Z,5.9
2017-04-05T22:10:42.587Z,5.9
2017-04-05T22:11:45.047Z,5.9
2017-04-05T22:12:47.356Z,5.9
2017-04-05T22:13:51.602Z,5.9
2017-04-05T22:14:54.258Z,5.9
2017-04-05T22:15:56.534Z,5.9
2017-04-05T22:16:59.111Z,5.8
2017-04-05T22:18:01.371Z,5.8
2017-04-05T22:19:03.172Z,5.7
2017-04-05T22:20:05.478Z,5.8
2017-04-05T22:21:08.444Z,5.8
2017-04-05T22:22:12.075Z,5.8
2017-04-05T22:23:14.006Z,5.8
2017-04-05T22:24:15.796Z,5.8
2017-04-05T22:25:18.017Z,5.8
2017-04-05T22:26:20.170Z,5.9
2017-04-05T22:27:22.371Z,5.9
2017-04-05T22:28:24.503Z,5.9
2017-04-05T22:29:26.395Z,5.9
2017-04-05T22:30:28.193Z,6
2017-04-05T22:31:30.056Z,5.9
2017-04-05T22:32:31.856Z,5.9
2017-04-05T22:33:34.044Z,5.9
2017-04-05T22:34:36.175Z,5.9
2017-04-05T22:35:37.968Z,5.9
2017-04-05T22:36:39.755Z,5.9
2017-04-05T22:37:41.552Z,5.9
2017-04-05T22:38:43.338Z,5.9
2017-04-05T22:39:45.133Z,6
2017-04-05T22:40:46.937Z,6
2017-04-05T22:41:48.729Z,6
2017-04-05T22:42:50.566Z,6
2017-04-05T22:43:52.356Z,6
2017-04-05T22:44:54.603Z,6
2017-04-05T22:45:56.393Z,6
2017-04-05T22:46:58.273Z,6
2017-04-05T22:48:00.072Z,6
2017-04-05T22:49:01.868Z,6
2017-04-05T22:50:04.352Z,6
2017-04-05T22:51:06.209Z,6
2017-04-05T22:52:08.131Z,6
2017-04-05T22:53:09.921Z,5.9
2017-04-05T22:54:11.786Z,5.9
2017-04-05T22:55:13.589Z,5.9
2017-04-05T22:56:15.381Z,5.9
2017-04-05T22:57:17.186Z,5.9
2017-04-05T22:58:19.083Z,5.9
2017-04-05T22:59:20.894Z,5.9
2017-04-05T23:00:22.696Z,5.8
2017-04-05T23:01:24.502Z,5.8
2017-04-05T23:02:26.292Z,5.9
2017-04-05T23:03:28.093Z,5.9
2017-04-05T23:04:29.914Z,5.8
2017-04-05T23:05:31.710Z,5.8
2017-04-05T23:06:33.604Z,5.8
2017-04-05T23:07:35.410Z,5.8